sensor_id;sensor_type;location;lat;lon;timestamp;temperature;humidity
40600;DHT22;26309;50.924;4.754;2023-04-09T00:01:55;6.90;99.90
40600;DHT22;26309;50.924;4.754;2023-04-09T00:04:21;6.80;99.90
40600;DHT22;26309;50.924;4.754;2023-04-09T00:06:48;6.80;99.90
40600;DHT22;26309;50.924;4.754;2023-04-09T00:09:13;6.70;99.90
40600;DHT22;26309;50.924;4.754;2023-04-09T00:11:39;6.60;99.90
40600;DHT22;26309;50.924;4.754;2023-04-09T00:14:05;6.60;99.90
40600;DHT22;26309;50.924;4.754;2023-04-09T00:16:31;6.60;99.90
40600;DHT22;26309;50.924;4.754;2023-04-09T00:18:57;6.50;99.90
40600;DHT22;26309;50.924;4.754;2023-04-09T00:21:22;6.50;99.90
40600;DHT22;26309;50.924;4.754;2023-04-09T00:23:48;6.40;99.90
40600;DHT22;26309;50.924;4.754;2023-04-09T00:26:14;6.30;99.90
40600;DHT22;26309;50.924;4.754;2023-04-09T00:28:40;6.30;99.90
40600;DHT22;26309;50.924;4.754;2023-04-09T00:31:06;6.30;99.90
40600;DHT22;26309;50.924;4.754;2023-04-09T00:33:32;6.20;99.90
40600;DHT22;26309;50.924;4.754;2023-04-09T00:35:58;6.20;99.90
40600;DHT22;26309;50.924;4.754;2023-04-09T00:38:24;6.20;99.90
40600;DHT22;26309;50.924;4.754;2023-04-09T00:40:50;6.30;99.90
40600;DHT22;26309;50.924;4.754;2023-04-09T00:43:16;6.20;99.90
40600;DHT22;26309;50.924;4.754;2023-04-09T00:45:43;6.10;99.90
40600;DHT22;26309;50.924;4.754;2023-04-09T00:48:10;6.20;99.90
40600;DHT22;26309;50.924;4.754;2023-04-09T00:50:36;6.00;99.90
40600;DHT22;26309;50.924;4.754;2023-04-09T00:53:02;6.00;99.90
40600;DHT22;26309;50.924;4.754;2023-04-09T00:55:29;6.10;99.90
40600;DHT22;26309;50.924;4.754;2023-04-09T00:57:55;6.20;99.90
40600;DHT22;26309;50.924;4.754;2023-04-09T01:00:21;6.20;99.90
40600;DHT22;26309;50.924;4.754;2023-04-09T01:02:48;6.10;99.90
40600;DHT22;26309;50.924;4.754;2023-04-09T01:05:18;6.00;99.90
40600;DHT22;26309;50.924;4.754;2023-04-09T01:08:00;6.10;99.90
40600;DHT22;26309;50.924;4.754;2023-04-09T01:14:00;5.90;99.90
40600;DHT22;26309;50.924;4.754;2023-04-09T01:15:58;5.90;99.90
40600;DHT22;26309;50.924;4.754;2023-04-09T01:21:24;5.90;99.90
40600;DHT22;26309;50.924;4.754;2023-04-09T01:29:22;5.60;99.90
40600;DHT22;26309;50.924;4.754;2023-04-09T01:31:51;5.60;99.90
40600;DHT22;26309;50.924;4.754;2023-04-09T01:34:17;5.70;99.90
40600;DHT22;26309;50.924;4.754;2023-04-09T01:36:49;5.90;99.90
40600;DHT22;26309;50.924;4.754;2023-04-09T01:39:17;5.80;99.90
40600;DHT22;26309;50.924;4.754;2023-04-09T01:41:43;5.80;99.90
40600;DHT22;26309;50.924;4.754;2023-04-09T01:44:10;5.70;99.90
40600;DHT22;26309;50.924;4.754;2023-04-09T01:46:38;5.80;99.90
40600;DHT22;26309;50.924;4.754;2023-04-09T01:49:05;5.90;99.90
40600;DHT22;26309;50.924;4.754;2023-04-09T01:51:31;5.80;99.90
40600;DHT22;26309;50.924;4.754;2023-04-09T01:53:58;5.80;99.90
40600;DHT22;26309;50.924;4.754;2023-04-09T01:56:24;5.90;99.90
40600;DHT22;26309;50.924;4.754;2023-04-09T01:58:50;5.90;99.90
40600;DHT22;26309;50.924;4.754;2023-04-09T02:01:54;5.90;99.90
40600;DHT22;26309;50.924;4.754;2023-04-09T02:04:32;5.90;99.90
40600;DHT22;26309;50.924;4.754;2023-04-09T02:09:39;6.00;99.90
40600;DHT22;26309;50.924;4.754;2023-04-09T02:12:16;6.10;99.90
40600;DHT22;26309;50.924;4.754;2023-04-09T02:14:45;6.00;99.90
40600;DHT22;26309;50.924;4.754;2023-04-09T02:17:11;6.10;99.90
40600;DHT22;26309;50.924;4.754;2023-04-09T02:19:53;6.10;99.90
40600;DHT22;26309;50.924;4.754;2023-04-09T02:22:18;6.20;99.90
40600;DHT22;26309;50.924;4.754;2023-04-09T02:24:47;6.30;99.90
40600;DHT22;26309;50.924;4.754;2023-04-09T02:27:32;6.40;99.90
40600;DHT22;26309;50.924;4.754;2023-04-09T02:29:58;6.50;99.90
40600;DHT22;26309;50.924;4.754;2023-04-09T02:32:24;6.50;99.90
40600;DHT22;26309;50.924;4.754;2023-04-09T02:34:52;6.60;99.90
40600;DHT22;26309;50.924;4.754;2023-04-09T02:37:18;6.70;99.90
40600;DHT22;26309;50.924;4.754;2023-04-09T02:39:44;6.70;99.90
40600;DHT22;26309;50.924;4.754;2023-04-09T02:42:10;6.70;99.90
40600;DHT22;26309;50.924;4.754;2023-04-09T02:44:35;6.70;99.90
40600;DHT22;26309;50.924;4.754;2023-04-09T02:47:01;6.80;99.90
40600;DHT22;26309;50.924;4.754;2023-04-09T02:49:27;6.80;99.90
40600;DHT22;26309;50.924;4.754;2023-04-09T02:51:53;6.90;99.90
40600;DHT22;26309;50.924;4.754;2023-04-09T02:54:19;7.00;99.90
40600;DHT22;26309;50.924;4.754;2023-04-09T02:56:45;7.00;99.90
40600;DHT22;26309;50.924;4.754;2023-04-09T02:59:11;6.90;99.90
40600;DHT22;26309;50.924;4.754;2023-04-09T03:01:37;6.70;99.90
40600;DHT22;26309;50.924;4.754;2023-04-09T03:04:03;6.60;99.90
40600;DHT22;26309;50.924;4.754;2023-04-09T03:06:29;6.60;99.90
40600;DHT22;26309;50.924;4.754;2023-04-09T03:08:57;6.60;99.90
40600;DHT22;26309;50.924;4.754;2023-04-09T03:11:23;6.50;99.90
40600;DHT22;26309;50.924;4.754;2023-04-09T03:13:48;6.50;99.90
40600;DHT22;26309;50.924;4.754;2023-04-09T03:16:14;6.30;99.90
40600;DHT22;26309;50.924;4.754;2023-04-09T03:18:40;6.30;99.90
40600;DHT22;26309;50.924;4.754;2023-04-09T03:21:07;6.10;99.90
40600;DHT22;26309;50.924;4.754;2023-04-09T03:23:34;6.10;99.90
40600;DHT22;26309;50.924;4.754;2023-04-09T03:26:03;6.10;99.90
40600;DHT22;26309;50.924;4.754;2023-04-09T03:28:29;6.20;99.90
40600;DHT22;26309;50.924;4.754;2023-04-09T03:30:55;6.10;99.90
40600;DHT22;26309;50.924;4.754;2023-04-09T03:33:21;6.00;99.90
40600;DHT22;26309;50.924;4.754;2023-04-09T03:35:47;6.00;99.90
40600;DHT22;26309;50.924;4.754;2023-04-09T03:38:13;5.90;99.90
40600;DHT22;26309;50.924;4.754;2023-04-09T03:40:39;5.90;99.90
40600;DHT22;26309;50.924;4.754;2023-04-09T03:43:07;5.90;99.90
40600;DHT22;26309;50.924;4.754;2023-04-09T03:45:33;5.90;99.90
40600;DHT22;26309;50.924;4.754;2023-04-09T03:47:59;5.90;99.90
40600;DHT22;26309;50.924;4.754;2023-04-09T03:50:25;6.00;99.90
40600;DHT22;26309;50.924;4.754;2023-04-09T03:52:51;6.00;99.90
40600;DHT22;26309;50.924;4.754;2023-04-09T03:55:17;5.90;99.90
40600;DHT22;26309;50.924;4.754;2023-04-09T03:57:43;5.80;99.90
40600;DHT22;26309;50.924;4.754;2023-04-09T04:00:09;5.70;99.90
40600;DHT22;26309;50.924;4.754;2023-04-09T04:02:36;5.60;99.90
40600;DHT22;26309;50.924;4.754;2023-04-09T04:05:05;5.70;99.90
40600;DHT22;26309;50.924;4.754;2023-04-09T04:07:31;5.70;99.90
40600;DHT22;26309;50.924;4.754;2023-04-09T04:09:57;5.70;99.90
40600;DHT22;26309;50.924;4.754;2023-04-09T04:12:23;5.60;99.90
40600;DHT22;26309;50.924;4.754;2023-04-09T04:14:49;5.60;99.90
40600;DHT22;26309;50.924;4.754;2023-04-09T04:17:15;5.60;99.90
40600;DHT22;26309;50.924;4.754;2023-04-09T04:19:40;5.40;99.90
40600;DHT22;26309;50.924;4.754;2023-04-09T04:22:06;5.50;99.90
40600;DHT22;26309;50.924;4.754;2023-04-09T04:24:32;5.50;99.90
40600;DHT22;26309;50.924;4.754;2023-04-09T04:26:58;5.50;99.90
40600;DHT22;26309;50.924;4.754;2023-04-09T04:29:23;5.30;99.90
40600;DHT22;26309;50.924;4.754;2023-04-09T04:31:49;5.30;99.90
40600;DHT22;26309;50.924;4.754;2023-04-09T04:34:15;5.30;99.90
40600;DHT22;26309;50.924;4.754;2023-04-09T04:36:41;5.20;99.90
40600;DHT22;26309;50.924;4.754;2023-04-09T04:39:07;5.10;99.90
40600;DHT22;26309;50.924;4.754;2023-04-09T04:41:33;5.10;99.90
40600;DHT22;26309;50.924;4.754;2023-04-09T04:43:59;5.00;99.90
40600;DHT22;26309;50.924;4.754;2023-04-09T04:46:24;5.00;99.90
40600;DHT22;26309;50.924;4.754;2023-04-09T04:48:50;5.10;99.90
40600;DHT22;26309;50.924;4.754;2023-04-09T04:51:16;5.00;99.90
40600;DHT22;26309;50.924;4.754;2023-04-09T04:53:42;5.10;99.90
40600;DHT22;26309;50.924;4.754;2023-04-09T04:56:14;5.20;99.90
40600;DHT22;26309;50.924;4.754;2023-04-09T04:58:41;5.30;99.90
40600;DHT22;26309;50.924;4.754;2023-04-09T05:01:07;5.10;99.90
40600;DHT22;26309;50.924;4.754;2023-04-09T05:03:33;5.00;99.90
40600;DHT22;26309;50.924;4.754;2023-04-09T05:05:59;5.00;99.90
40600;DHT22;26309;50.924;4.754;2023-04-09T05:08:25;5.00;99.90
40600;DHT22;26309;50.924;4.754;2023-04-09T05:10:51;5.00;99.90
40600;DHT22;26309;50.924;4.754;2023-04-09T05:13:21;5.00;99.90
40600;DHT22;26309;50.924;4.754;2023-04-09T05:15:47;4.90;99.90
40600;DHT22;26309;50.924;4.754;2023-04-09T05:18:13;4.90;99.90
40600;DHT22;26309;50.924;4.754;2023-04-09T05:20:39;4.90;99.90
40600;DHT22;26309;50.924;4.754;2023-04-09T05:23:05;5.00;99.90
40600;DHT22;26309;50.924;4.754;2023-04-09T05:25:31;5.10;99.90
40600;DHT22;26309;50.924;4.754;2023-04-09T05:27:56;5.20;99.90
40600;DHT22;26309;50.924;4.754;2023-04-09T05:30:22;5.10;99.90
40600;DHT22;26309;50.924;4.754;2023-04-09T05:32:48;5.10;99.90
40600;DHT22;26309;50.924;4.754;2023-04-09T05:35:14;5.10;99.90
40600;DHT22;26309;50.924;4.754;2023-04-09T05:37:40;5.10;99.90
40600;DHT22;26309;50.924;4.754;2023-04-09T05:40:06;5.20;99.90
40600;DHT22;26309;50.924;4.754;2023-04-09T05:42:32;5.20;99.90
40600;DHT22;26309;50.924;4.754;2023-04-09T05:44:58;5.40;99.90
40600;DHT22;26309;50.924;4.754;2023-04-09T05:47:24;5.50;99.90
40600;DHT22;26309;50.924;4.754;2023-04-09T05:49:50;5.70;99.90
40600;DHT22;26309;50.924;4.754;2023-04-09T05:52:15;5.90;99.90
40600;DHT22;26309;50.924;4.754;2023-04-09T05:54:41;6.00;99.90
40600;DHT22;26309;50.924;4.754;2023-04-09T05:57:07;6.10;99.90
40600;DHT22;26309;50.924;4.754;2023-04-09T05:59:33;6.30;99.90
40600;DHT22;26309;50.924;4.754;2023-04-09T06:01:59;6.40;99.90
40600;DHT22;26309;50.924;4.754;2023-04-09T06:04:24;6.60;99.90
40600;DHT22;26309;50.924;4.754;2023-04-09T06:06:50;6.70;99.90
40600;DHT22;26309;50.924;4.754;2023-04-09T06:09:16;6.80;99.90
40600;DHT22;26309;50.924;4.754;2023-04-09T06:11:42;6.90;99.90
40600;DHT22;26309;50.924;4.754;2023-04-09T06:14:08;7.10;99.90
40600;DHT22;26309;50.924;4.754;2023-04-09T06:16:36;7.40;99.90
40600;DHT22;26309;50.924;4.754;2023-04-09T06:19:02;7.60;99.90
40600;DHT22;26309;50.924;4.754;2023-04-09T06:21:28;7.80;99.90
40600;DHT22;26309;50.924;4.754;2023-04-09T06:23:56;8.10;99.90
40600;DHT22;26309;50.924;4.754;2023-04-09T06:26:21;8.30;99.90
40600;DHT22;26309;50.924;4.754;2023-04-09T06:28:47;8.40;99.90
40600;DHT22;26309;50.924;4.754;2023-04-09T06:31:14;8.60;99.90
40600;DHT22;26309;50.924;4.754;2023-04-09T06:33:40;8.70;99.90
40600;DHT22;26309;50.924;4.754;2023-04-09T06:36:06;8.90;99.90
40600;DHT22;26309;50.924;4.754;2023-04-09T06:38:33;9.00;99.90
40600;DHT22;26309;50.924;4.754;2023-04-09T06:40:59;9.20;99.90
40600;DHT22;26309;50.924;4.754;2023-04-09T06:43:24;9.30;99.90
40600;DHT22;26309;50.924;4.754;2023-04-09T06:45:50;9.50;99.90
40600;DHT22;26309;50.924;4.754;2023-04-09T06:48:16;9.60;99.90
40600;DHT22;26309;50.924;4.754;2023-04-09T06:50:43;9.60;99.90
40600;DHT22;26309;50.924;4.754;2023-04-09T06:53:09;9.70;99.90
40600;DHT22;26309;50.924;4.754;2023-04-09T06:55:35;9.70;99.90
40600;DHT22;26309;50.924;4.754;2023-04-09T06:58:01;9.60;99.90
40600;DHT22;26309;50.924;4.754;2023-04-09T07:00:27;9.70;99.90
40600;DHT22;26309;50.924;4.754;2023-04-09T07:02:53;9.80;99.90
40600;DHT22;26309;50.924;4.754;2023-04-09T07:05:19;9.90;99.90
40600;DHT22;26309;50.924;4.754;2023-04-09T07:07:45;9.80;99.90
40600;DHT22;26309;50.924;4.754;2023-04-09T07:10:11;10.00;99.90
40600;DHT22;26309;50.924;4.754;2023-04-09T07:12:37;10.00;99.90
40600;DHT22;26309;50.924;4.754;2023-04-09T07:15:05;10.20;99.90
40600;DHT22;26309;50.924;4.754;2023-04-09T07:17:31;10.20;99.90
40600;DHT22;26309;50.924;4.754;2023-04-09T07:19:57;10.40;99.90
40600;DHT22;26309;50.924;4.754;2023-04-09T07:22:24;10.40;99.90
40600;DHT22;26309;50.924;4.754;2023-04-09T07:24:51;10.40;99.90
40600;DHT22;26309;50.924;4.754;2023-04-09T07:27:20;10.40;99.90
40600;DHT22;26309;50.924;4.754;2023-04-09T07:29:46;10.40;99.90
40600;DHT22;26309;50.924;4.754;2023-04-09T07:32:12;10.40;99.90
40600;DHT22;26309;50.924;4.754;2023-04-09T07:34:38;10.40;99.90
40600;DHT22;26309;50.924;4.754;2023-04-09T07:37:04;10.50;99.90
40600;DHT22;26309;50.924;4.754;2023-04-09T07:39:30;10.50;99.90
40600;DHT22;26309;50.924;4.754;2023-04-09T07:41:57;10.70;99.90
40600;DHT22;26309;50.924;4.754;2023-04-09T07:44:24;11.00;99.90
40600;DHT22;26309;50.924;4.754;2023-04-09T07:46:50;11.20;99.90
40600;DHT22;26309;50.924;4.754;2023-04-09T07:49:16;11.40;99.90
40600;DHT22;26309;50.924;4.754;2023-04-09T07:51:42;11.70;99.90
40600;DHT22;26309;50.924;4.754;2023-04-09T07:54:08;12.00;99.90
40600;DHT22;26309;50.924;4.754;2023-04-09T07:56:33;12.20;99.90
40600;DHT22;26309;50.924;4.754;2023-04-09T07:59:00;12.30;99.90
40600;DHT22;26309;50.924;4.754;2023-04-09T08:01:26;12.50;99.90
40600;DHT22;26309;50.924;4.754;2023-04-09T08:03:57;12.50;99.90
40600;DHT22;26309;50.924;4.754;2023-04-09T08:06:23;12.40;99.90
40600;DHT22;26309;50.924;4.754;2023-04-09T08:08:49;12.60;99.90
40600;DHT22;26309;50.924;4.754;2023-04-09T08:11:15;12.70;99.90
40600;DHT22;26309;50.924;4.754;2023-04-09T08:13:41;12.70;99.90
40600;DHT22;26309;50.924;4.754;2023-04-09T08:16:07;12.70;99.90
40600;DHT22;26309;50.924;4.754;2023-04-09T08:18:32;12.80;99.90
40600;DHT22;26309;50.924;4.754;2023-04-09T08:20:58;12.90;99.90
40600;DHT22;26309;50.924;4.754;2023-04-09T08:23:28;12.90;99.90
40600;DHT22;26309;50.924;4.754;2023-04-09T08:25:54;13.10;99.90
40600;DHT22;26309;50.924;4.754;2023-04-09T08:28:21;13.10;99.90
40600;DHT22;26309;50.924;4.754;2023-04-09T08:30:47;13.20;99.90
40600;DHT22;26309;50.924;4.754;2023-04-09T08:33:14;13.20;99.90
40600;DHT22;26309;50.924;4.754;2023-04-09T08:35:39;13.00;99.90
40600;DHT22;26309;50.924;4.754;2023-04-09T08:38:06;13.20;99.90
40600;DHT22;26309;50.924;4.754;2023-04-09T08:40:35;13.30;99.90
40600;DHT22;26309;50.924;4.754;2023-04-09T08:43:05;13.40;99.90
40600;DHT22;26309;50.924;4.754;2023-04-09T08:45:33;13.60;99.90
40600;DHT22;26309;50.924;4.754;2023-04-09T08:48:01;13.70;99.90
40600;DHT22;26309;50.924;4.754;2023-04-09T08:50:32;14.00;99.90
40600;DHT22;26309;50.924;4.754;2023-04-09T08:53:02;14.20;99.90
40600;DHT22;26309;50.924;4.754;2023-04-09T08:55:32;14.40;99.90
40600;DHT22;26309;50.924;4.754;2023-04-09T08:58:05;14.40;99.90
40600;DHT22;26309;50.924;4.754;2023-04-09T09:00:37;14.50;99.90
40600;DHT22;26309;50.924;4.754;2023-04-09T09:03:11;14.70;99.90
40600;DHT22;26309;50.924;4.754;2023-04-09T09:05:46;14.80;99.90
40600;DHT22;26309;50.924;4.754;2023-04-09T09:08:24;14.80;99.90
40600;DHT22;26309;50.924;4.754;2023-04-09T09:10:51;14.80;99.90
40600;DHT22;26309;50.924;4.754;2023-04-09T09:13:18;14.90;99.90
40600;DHT22;26309;50.924;4.754;2023-04-09T09:15:54;14.90;99.90
40600;DHT22;26309;50.924;4.754;2023-04-09T09:18:41;15.00;99.90
40600;DHT22;26309;50.924;4.754;2023-04-09T09:21:15;15.10;99.90
40600;DHT22;26309;50.924;4.754;2023-04-09T09:23:42;15.20;99.90
40600;DHT22;26309;50.924;4.754;2023-04-09T09:28:41;15.30;99.90
40600;DHT22;26309;50.924;4.754;2023-04-09T09:31:10;15.40;99.90
40600;DHT22;26309;50.924;4.754;2023-04-09T09:33:36;15.30;99.90
40600;DHT22;26309;50.924;4.754;2023-04-09T09:36:02;15.30;99.90
40600;DHT22;26309;50.924;4.754;2023-04-09T09:38:29;15.30;99.90
40600;DHT22;26309;50.924;4.754;2023-04-09T09:40:55;15.40;99.90
40600;DHT22;26309;50.924;4.754;2023-04-09T09:43:21;15.50;99.90
40600;DHT22;26309;50.924;4.754;2023-04-09T09:45:48;15.60;99.90
40600;DHT22;26309;50.924;4.754;2023-04-09T09:48:14;15.50;99.90
40600;DHT22;26309;50.924;4.754;2023-04-09T09:50:41;15.40;99.90
40600;DHT22;26309;50.924;4.754;2023-04-09T09:53:11;15.50;99.90
40600;DHT22;26309;50.924;4.754;2023-04-09T09:55:41;15.50;99.90
40600;DHT22;26309;50.924;4.754;2023-04-09T09:58:36;15.60;99.90
40600;DHT22;26309;50.924;4.754;2023-04-09T10:01:07;15.60;99.90
40600;DHT22;26309;50.924;4.754;2023-04-09T10:03:38;15.30;99.90
40600;DHT22;26309;50.924;4.754;2023-04-09T10:06:05;15.20;99.90
40600;DHT22;26309;50.924;4.754;2023-04-09T10:08:32;15.30;99.90
40600;DHT22;26309;50.924;4.754;2023-04-09T10:11:02;15.50;99.90
40600;DHT22;26309;50.924;4.754;2023-04-09T10:13:39;15.70;99.90
40600;DHT22;26309;50.924;4.754;2023-04-09T10:16:06;15.80;99.90
40600;DHT22;26309;50.924;4.754;2023-04-09T10:18:33;15.90;99.90
40600;DHT22;26309;50.924;4.754;2023-04-09T10:23:51;15.90;99.90
40600;DHT22;26309;50.924;4.754;2023-04-09T10:26:19;15.80;99.90
40600;DHT22;26309;50.924;4.754;2023-04-09T10:28:44;15.80;99.90
40600;DHT22;26309;50.924;4.754;2023-04-09T10:31:10;15.80;99.90
40600;DHT22;26309;50.924;4.754;2023-04-09T10:33:37;16.00;99.90
40600;DHT22;26309;50.924;4.754;2023-04-09T10:36:09;16.20;99.90
40600;DHT22;26309;50.924;4.754;2023-04-09T10:38:44;16.10;99.90
40600;DHT22;26309;50.924;4.754;2023-04-09T10:41:24;16.20;99.90
40600;DHT22;26309;50.924;4.754;2023-04-09T10:43:52;16.50;99.90
40600;DHT22;26309;50.924;4.754;2023-04-09T10:46:29;16.90;99.90
40600;DHT22;26309;50.924;4.754;2023-04-09T10:49:17;17.00;99.90
40600;DHT22;26309;50.924;4.754;2023-04-09T10:52:00;17.00;99.90
40600;DHT22;26309;50.924;4.754;2023-04-09T10:59:38;17.20;99.90
40600;DHT22;26309;50.924;4.754;2023-04-09T11:02:08;17.20;99.90
40600;DHT22;26309;50.924;4.754;2023-04-09T11:07:39;17.30;99.90
40600;DHT22;26309;50.924;4.754;2023-04-09T11:10:06;17.10;99.90
40600;DHT22;26309;50.924;4.754;2023-04-09T11:12:35;17.00;99.90
40600;DHT22;26309;50.924;4.754;2023-04-09T11:15:01;16.70;99.90
40600;DHT22;26309;50.924;4.754;2023-04-09T11:17:27;16.90;99.90
40600;DHT22;26309;50.924;4.754;2023-04-09T11:19:53;17.10;99.90
40600;DHT22;26309;50.924;4.754;2023-04-09T11:22:19;17.40;99.90
40600;DHT22;26309;50.924;4.754;2023-04-09T11:24:45;17.60;99.90
40600;DHT22;26309;50.924;4.754;2023-04-09T11:27:12;17.80;99.90
40600;DHT22;26309;50.924;4.754;2023-04-09T11:29:38;17.80;99.90
40600;DHT22;26309;50.924;4.754;2023-04-09T11:32:04;17.80;99.90
40600;DHT22;26309;50.924;4.754;2023-04-09T11:34:33;18.00;99.90
40600;DHT22;26309;50.924;4.754;2023-04-09T11:36:59;18.10;99.50
40600;DHT22;26309;50.924;4.754;2023-04-09T11:39:29;18.30;99.80
40600;DHT22;26309;50.924;4.754;2023-04-09T11:41:55;18.50;97.90
40600;DHT22;26309;50.924;4.754;2023-04-09T11:44:22;18.60;98.10
40600;DHT22;26309;50.924;4.754;2023-04-09T11:46:48;18.50;97.60
40600;DHT22;26309;50.924;4.754;2023-04-09T11:49:15;18.20;97.40
40600;DHT22;26309;50.924;4.754;2023-04-09T11:51:42;17.90;98.20
40600;DHT22;26309;50.924;4.754;2023-04-09T11:54:07;17.80;99.90
40600;DHT22;26309;50.924;4.754;2023-04-09T11:56:36;17.60;99.90
40600;DHT22;26309;50.924;4.754;2023-04-09T11:59:03;17.60;99.90
40600;DHT22;26309;50.924;4.754;2023-04-09T12:01:32;17.50;99.70
40600;DHT22;26309;50.924;4.754;2023-04-09T12:03:59;17.50;99.90
40600;DHT22;26309;50.924;4.754;2023-04-09T12:06:26;17.60;99.90
40600;DHT22;26309;50.924;4.754;2023-04-09T12:08:54;17.80;99.90
40600;DHT22;26309;50.924;4.754;2023-04-09T12:11:27;18.10;97.60
40600;DHT22;26309;50.924;4.754;2023-04-09T12:14:06;17.90;97.20
40600;DHT22;26309;50.924;4.754;2023-04-09T12:16:37;17.70;97.90
40600;DHT22;26309;50.924;4.754;2023-04-09T12:19:07;17.70;99.30
40600;DHT22;26309;50.924;4.754;2023-04-09T12:21:50;17.60;98.70
40600;DHT22;26309;50.924;4.754;2023-04-09T12:24:18;17.60;98.90
40600;DHT22;26309;50.924;4.754;2023-04-09T12:26:45;17.70;97.40
40600;DHT22;26309;50.924;4.754;2023-04-09T12:29:16;17.90;99.10
40600;DHT22;26309;50.924;4.754;2023-04-09T12:31:43;17.70;99.50
40600;DHT22;26309;50.924;4.754;2023-04-09T12:34:09;17.60;99.90
40600;DHT22;26309;50.924;4.754;2023-04-09T12:36:35;17.30;99.10
40600;DHT22;26309;50.924;4.754;2023-04-09T12:39:04;17.30;99.90
40600;DHT22;26309;50.924;4.754;2023-04-09T12:41:30;17.50;99.00
40600;DHT22;26309;50.924;4.754;2023-04-09T12:43:56;17.50;97.30
40600;DHT22;26309;50.924;4.754;2023-04-09T12:46:22;17.50;99.70
40600;DHT22;26309;50.924;4.754;2023-04-09T12:48:48;17.40;98.00
40600;DHT22;26309;50.924;4.754;2023-04-09T12:51:14;17.50;99.80
40600;DHT22;26309;50.924;4.754;2023-04-09T12:53:40;17.70;99.30
40600;DHT22;26309;50.924;4.754;2023-04-09T12:56:06;17.70;98.00
40600;DHT22;26309;50.924;4.754;2023-04-09T12:58:32;17.50;99.90
40600;DHT22;26309;50.924;4.754;2023-04-09T13:00:58;17.60;99.30
40600;DHT22;26309;50.924;4.754;2023-04-09T13:03:27;17.40;98.40
40600;DHT22;26309;50.924;4.754;2023-04-09T13:05:53;17.60;97.90
40600;DHT22;26309;50.924;4.754;2023-04-09T13:08:19;17.50;96.40
40600;DHT22;26309;50.924;4.754;2023-04-09T13:10:45;17.40;97.40
40600;DHT22;26309;50.924;4.754;2023-04-09T13:13:11;17.50;96.20
40600;DHT22;26309;50.924;4.754;2023-04-09T13:15:39;17.50;95.00
40600;DHT22;26309;50.924;4.754;2023-04-09T13:18:08;17.40;95.20
40600;DHT22;26309;50.924;4.754;2023-04-09T13:20:35;17.70;95.50
40600;DHT22;26309;50.924;4.754;2023-04-09T13:23:06;17.80;95.80
40600;DHT22;26309;50.924;4.754;2023-04-09T13:25:31;18.10;94.90
40600;DHT22;26309;50.924;4.754;2023-04-09T13:27:57;17.60;97.00
40600;DHT22;26309;50.924;4.754;2023-04-09T13:30:23;17.70;94.60
40600;DHT22;26309;50.924;4.754;2023-04-09T13:32:49;18.10;92.90
40600;DHT22;26309;50.924;4.754;2023-04-09T13:35:15;18.60;91.90
40600;DHT22;26309;50.924;4.754;2023-04-09T13:37:41;18.80;90.40
40600;DHT22;26309;50.924;4.754;2023-04-09T13:40:07;18.70;89.70
40600;DHT22;26309;50.924;4.754;2023-04-09T13:42:34;18.80;90.90
40600;DHT22;26309;50.924;4.754;2023-04-09T13:45:00;18.70;90.00
40600;DHT22;26309;50.924;4.754;2023-04-09T13:47:26;18.60;90.50
40600;DHT22;26309;50.924;4.754;2023-04-09T13:49:52;18.50;90.50
40600;DHT22;26309;50.924;4.754;2023-04-09T13:52:18;18.20;91.20
40600;DHT22;26309;50.924;4.754;2023-04-09T13:54:44;18.10;90.50
40600;DHT22;26309;50.924;4.754;2023-04-09T13:57:11;18.20;88.20
40600;DHT22;26309;50.924;4.754;2023-04-09T13:59:37;18.20;88.90
40600;DHT22;26309;50.924;4.754;2023-04-09T14:02:04;18.40;86.10
40600;DHT22;26309;50.924;4.754;2023-04-09T14:04:30;18.20;89.00
40600;DHT22;26309;50.924;4.754;2023-04-09T14:06:56;18.20;85.70
40600;DHT22;26309;50.924;4.754;2023-04-09T14:09:22;18.30;84.40
40600;DHT22;26309;50.924;4.754;2023-04-09T14:11:48;18.30;84.50
40600;DHT22;26309;50.924;4.754;2023-04-09T14:14:14;18.50;84.80
40600;DHT22;26309;50.924;4.754;2023-04-09T14:16:40;18.60;83.00
40600;DHT22;26309;50.924;4.754;2023-04-09T14:19:06;18.70;82.00
40600;DHT22;26309;50.924;4.754;2023-04-09T14:21:32;18.70;83.20
40600;DHT22;26309;50.924;4.754;2023-04-09T14:23:58;18.80;85.10
40600;DHT22;26309;50.924;4.754;2023-04-09T14:26:28;18.90;85.90
40600;DHT22;26309;50.924;4.754;2023-04-09T14:28:53;19.10;88.40
40600;DHT22;26309;50.924;4.754;2023-04-09T14:31:19;19.30;84.60
40600;DHT22;26309;50.924;4.754;2023-04-09T14:33:47;19.40;82.20
40600;DHT22;26309;50.924;4.754;2023-04-09T14:36:12;19.40;80.60
40600;DHT22;26309;50.924;4.754;2023-04-09T14:38:38;19.50;78.90
40600;DHT22;26309;50.924;4.754;2023-04-09T14:41:04;19.70;78.40
40600;DHT22;26309;50.924;4.754;2023-04-09T14:43:31;19.70;76.10
40600;DHT22;26309;50.924;4.754;2023-04-09T14:45:57;19.80;78.20
40600;DHT22;26309;50.924;4.754;2023-04-09T14:48:23;20.00;76.60
40600;DHT22;26309;50.924;4.754;2023-04-09T14:50:49;19.60;75.90
40600;DHT22;26309;50.924;4.754;2023-04-09T14:53:17;19.20;76.10
40600;DHT22;26309;50.924;4.754;2023-04-09T14:55:43;19.00;77.90
40600;DHT22;26309;50.924;4.754;2023-04-09T14:58:09;19.30;76.40
40600;DHT22;26309;50.924;4.754;2023-04-09T15:00:35;19.20;76.50
40600;DHT22;26309;50.924;4.754;2023-04-09T15:03:01;19.20;74.40
40600;DHT22;26309;50.924;4.754;2023-04-09T15:05:28;19.00;73.90
40600;DHT22;26309;50.924;4.754;2023-04-09T15:07:54;19.30;74.50
40600;DHT22;26309;50.924;4.754;2023-04-09T15:10:20;19.10;72.00
40600;DHT22;26309;50.924;4.754;2023-04-09T15:12:46;19.10;75.90
40600;DHT22;26309;50.924;4.754;2023-04-09T15:15:12;19.30;71.60
40600;DHT22;26309;50.924;4.754;2023-04-09T15:17:40;19.60;73.40
40600;DHT22;26309;50.924;4.754;2023-04-09T15:20:07;19.60;71.50
40600;DHT22;26309;50.924;4.754;2023-04-09T15:22:32;19.90;71.50
40600;DHT22;26309;50.924;4.754;2023-04-09T15:24:58;20.10;70.20
40600;DHT22;26309;50.924;4.754;2023-04-09T15:27:25;20.10;70.00
40600;DHT22;26309;50.924;4.754;2023-04-09T15:29:51;19.70;68.20
40600;DHT22;26309;50.924;4.754;2023-04-09T15:32:17;20.00;68.50
40600;DHT22;26309;50.924;4.754;2023-04-09T15:34:43;20.00;69.10
40600;DHT22;26309;50.924;4.754;2023-04-09T15:37:09;20.10;70.50
40600;DHT22;26309;50.924;4.754;2023-04-09T15:39:35;20.40;69.80
40600;DHT22;26309;50.924;4.754;2023-04-09T15:42:01;20.30;72.20
40600;DHT22;26309;50.924;4.754;2023-04-09T15:44:27;19.80;68.20
40600;DHT22;26309;50.924;4.754;2023-04-09T15:46:53;19.00;70.20
40600;DHT22;26309;50.924;4.754;2023-04-09T15:49:19;18.70;72.40
40600;DHT22;26309;50.924;4.754;2023-04-09T15:51:45;18.30;75.00
40600;DHT22;26309;50.924;4.754;2023-04-09T15:54:11;18.40;74.50
40600;DHT22;26309;50.924;4.754;2023-04-09T15:56:37;18.80;73.80
40600;DHT22;26309;50.924;4.754;2023-04-09T15:59:05;19.30;73.20
40600;DHT22;26309;50.924;4.754;2023-04-09T16:01:33;19.20;71.20
40600;DHT22;26309;50.924;4.754;2023-04-09T16:04:00;19.30;70.70
40600;DHT22;26309;50.924;4.754;2023-04-09T16:06:26;18.90;72.50